createdAt,value
2023-03-20T00:02:11.463Z,58.08
2023-03-20T00:04:38.451Z,56.13
2023-03-20T00:07:04.877Z,56.15
2023-03-20T00:09:31.368Z,57.65
2023-03-20T00:11:58.014Z,63.13
2023-03-20T00:14:24.893Z,48.72
2023-03-20T00:16:51.934Z,61.65
2023-03-20T00:19:23.530Z,53.95
2023-03-20T00:21:50.968Z,51.10
2023-03-20T00:24:17.388Z,48.47
2023-03-20T00:26:44.864Z,56.13
2023-03-20T00:29:28.645Z,57.85
2023-03-20T00:31:55.666Z,57.03
2023-03-20T00:34:24.245Z,55.25
2023-03-20T00:36:52.000Z,53.05
2023-03-20T00:39:18.529Z,50.55
2023-03-20T00:41:49.899Z,46.05
2023-03-20T00:44:35.873Z,46.22
2023-03-20T00:47:11.914Z,46.10
2023-03-20T00:49:38.349Z,51.40
2023-03-20T00:52:05.396Z,46.70
2023-03-20T00:54:32.503Z,48.72
2023-03-20T00:57:05.526Z,44.97
2023-03-20T00:59:36.324Z,58.45
2023-03-20T01:02:02.993Z,61.30
2023-03-20T01:04:36.717Z,59.60
2023-03-20T01:07:03.554Z,56.58
2023-03-20T01:09:29.999Z,51.90
2023-03-20T01:11:56.568Z,56.63
2023-03-20T01:14:23.245Z,52.67
2023-03-20T01:16:49.704Z,52.30
2023-03-20T01:19:16.754Z,58.40
2023-03-20T01:21:43.225Z,61.10
2023-03-20T01:24:09.900Z,58.55
2023-03-20T01:26:42.065Z,62.17
2023-03-20T01:31:45.159Z,55.33
2023-03-20T01:34:11.793Z,52.88
2023-03-20T01:36:38.686Z,49.28
2023-03-20T01:39:05.480Z,49.55
2023-03-20T01:41:32.542Z,52.72
2023-03-20T01:44:01.441Z,49.75
2023-03-20T01:46:31.754Z,48.47
2023-03-20T01:49:09.288Z,49.03
2023-03-20T01:51:37.572Z,53.70
2023-03-20T01:54:14.888Z,53.53
2023-03-20T01:56:44.766Z,54.33
2023-03-20T01:59:22.327Z,48.15
2023-03-20T02:01:48.770Z,50.83
2023-03-20T02:04:16.646Z,46.90
2023-03-20T02:06:44.951Z,50.47
2023-03-20T02:09:12.047Z,49.42
2023-03-20T02:11:39.731Z,44.10
2023-03-20T02:14:06.969Z,43.95
2023-03-20T02:16:33.362Z,42.72
2023-03-20T02:18:59.817Z,43.53
2023-03-20T02:22:03.217Z,48.50
2023-03-20T02:24:53.986Z,42.88
2023-03-20T02:27:33.460Z,45.90
2023-03-20T02:30:31.205Z,46.75
2023-03-20T02:33:23.300Z,49.17
2023-03-20T02:36:01.078Z,50.75
2023-03-20T02:38:44.274Z,51.78
2023-03-20T02:41:30.552Z,51.10
2023-03-20T02:44:02.943Z,51.03
2023-03-20T02:46:35.689Z,47.03
2023-03-20T02:49:10.020Z,53.67
2023-03-20T02:52:15.410Z,57.42
2023-03-20T02:55:08.138Z,45.35
2023-03-20T02:57:43.940Z,46.15
2023-03-20T03:00:15.923Z,43.88
2023-03-20T03:03:02.419Z,46.28
2023-03-20T03:05:42.534Z,46.90
2023-03-20T03:08:10.938Z,43.08
2023-03-20T03:10:44.876Z,44.13
2023-03-20T03:13:15.283Z,47.30
2023-03-20T03:15:45.363Z,40.78
2023-03-20T03:18:16.003Z,45.67
2023-03-20T03:20:43.226Z,38.15
2023-03-20T03:23:18.471Z,39.75
2023-03-20T03:25:45.879Z,34.22
2023-03-20T03:28:51.056Z,27.67
2023-03-20T03:31:18.066Z,23.52
2023-03-20T03:33:50.323Z,21.20
2023-03-20T03:39:03.295Z,17.90
2023-03-20T03:41:31.742Z,16.40
2023-03-20T03:44:07.089Z,20.55
2023-03-20T03:46:42.852Z,13.88
2023-03-20T03:49:15.663Z,12.40
2023-03-20T03:51:43.892Z,18.52
2023-03-20T03:54:13.880Z,13.75
2023-03-20T03:56:42.866Z,16.98
2023-03-20T03:59:15.419Z,16.13
2023-03-20T04:01:44.239Z,18.38
2023-03-20T04:04:12.801Z,21.55
2023-03-20T04:06:39.287Z,19.85
2023-03-20T04:09:05.682Z,18.75
2023-03-20T04:11:32.132Z,18.55
2023-03-20T04:13:58.483Z,20.63
2023-03-20T04:16:25.684Z,21.45
2023-03-20T04:18:52.227Z,20.60
2023-03-20T04:21:19.237Z,21.67
2023-03-20T04:23:45.981Z,13.93
2023-03-20T04:26:12.467Z,20.45
2023-03-20T04:28:38.857Z,15.65
2023-03-20T04:31:05.487Z,14.25
2023-03-20T04:33:31.999Z,12.88
2023-03-20T04:35:58.490Z,14.45
2023-03-20T04:38:24.986Z,16.67
2023-03-20T04:40:51.468Z,11.73
2023-03-20T04:43:17.893Z,10.43
2023-03-20T04:45:44.354Z,11.57
2023-03-20T04:48:10.848Z,11.77
2023-03-20T04:50:37.286Z,12.95
2023-03-20T04:53:03.780Z,9.93
2023-03-20T04:55:30.242Z,12.02
2023-03-20T04:57:56.618Z,8.93
2023-03-20T05:00:23.002Z,11.98
2023-03-20T05:02:49.446Z,11.23
2023-03-20T05:05:16.122Z,12.05
2023-03-20T05:07:42.498Z,10.63
2023-03-20T05:10:09.560Z,12.77
2023-03-20T05:12:35.951Z,11.98
2023-03-20T05:15:02.326Z,13.25
2023-03-20T05:17:28.718Z,15.05
2023-03-20T05:19:55.161Z,22.65
2023-03-20T05:22:21.559Z,19.17
2023-03-20T05:24:47.948Z,21.02
2023-03-20T05:27:14.334Z,21.85
2023-03-20T05:29:40.912Z,20.08
2023-03-20T05:32:07.325Z,20.40
2023-03-20T05:34:33.686Z,28.88
2023-03-20T05:37:00.321Z,25.00
2023-03-20T05:39:26.676Z,27.48
2023-03-20T05:41:53.036Z,25.70
2023-03-20T05:44:19.411Z,25.25
2023-03-20T05:46:45.957Z,33.70
2023-03-20T05:49:12.339Z,29.90
2023-03-20T05:51:38.708Z,31.42
2023-03-20T05:54:05.232Z,33.88
2023-03-20T05:56:31.679Z,29.63
2023-03-20T05:58:58.081Z,28.13
2023-03-20T06:01:24.507Z,29.80
2023-03-20T06:03:50.920Z,29.60
2023-03-20T06:06:17.498Z,33.05
2023-03-20T06:08:43.955Z,32.95
2023-03-20T06:11:10.497Z,32.63
2023-03-20T06:13:37.013Z,37.22
2023-03-20T06:16:03.535Z,36.85
2023-03-20T06:18:29.915Z,32.63
2023-03-20T06:20:57.473Z,36.10
2023-03-20T06:23:23.866Z,34.47
2023-03-20T06:25:50.512Z,41.47
2023-03-20T06:28:16.941Z,35.25
2023-03-20T06:30:44.022Z,35.63
2023-03-20T06:33:10.604Z,39.75
2023-03-20T06:35:37.543Z,38.10
2023-03-20T06:38:04.300Z,35.95
2023-03-20T06:40:30.679Z,40.40
2023-03-20T06:42:57.266Z,38.15
2023-03-20T06:45:23.731Z,35.63
2023-03-20T06:47:50.179Z,38.38
2023-03-20T06:50:16.740Z,35.47
2023-03-20T06:52:43.339Z,34.45
2023-03-20T06:55:09.869Z,32.50
2023-03-20T06:57:36.318Z,31.67
2023-03-20T07:00:04.675Z,33.65
2023-03-20T07:02:31.115Z,35.45
2023-03-20T07:04:57.553Z,26.50
2023-03-20T07:07:24.290Z,30.30
2023-03-20T07:09:50.686Z,26.83
2023-03-20T07:12:19.923Z,26.58
2023-03-20T07:14:46.395Z,25.75
2023-03-20T07:17:13.202Z,26.73
2023-03-20T07:19:39.605Z,29.27
2023-03-20T07:22:08.047Z,25.05
2023-03-20T07:24:34.947Z,23.80
2023-03-20T07:27:01.301Z,22.70
2023-03-20T07:29:27.745Z,20.38
2023-03-20T07:31:54.164Z,19.27
2023-03-20T07:34:20.607Z,20.55
2023-03-20T07:36:46.973Z,21.25
2023-03-20T07:39:13.819Z,17.15
2023-03-20T07:41:40.214Z,20.02
2023-03-20T07:44:08.278Z,19.67
2023-03-20T07:46:34.684Z,17.15
2023-03-20T07:49:01.049Z,16.25
2023-03-20T07:51:27.394Z,16.35
2023-03-20T07:53:53.792Z,15.23
2023-03-20T07:56:21.178Z,15.45
2023-03-20T07:58:47.588Z,14.00
2023-03-20T08:01:13.972Z,16.95
2023-03-20T08:03:40.800Z,16.17
2023-03-20T08:06:09.515Z,13.70
2023-03-20T08:08:35.981Z,13.85
2023-03-20T08:11:02.383Z,13.43
2023-03-20T08:13:28.791Z,12.63
2023-03-20T08:15:55.312Z,14.43
2023-03-20T08:18:22.365Z,14.45
2023-03-20T08:20:50.170Z,13.40
2023-03-20T08:23:20.076Z,13.90
2023-03-20T08:25:49.246Z,10.65
2023-03-20T08:28:15.941Z,14.48
2023-03-20T08:30:42.340Z,12.20
2023-03-20T08:33:08.927Z,11.82
2023-03-20T08:35:35.722Z,8.32
2023-03-20T08:38:02.399Z,11.50
2023-03-20T08:40:28.890Z,11.07
2023-03-20T08:42:55.463Z,11.95
2023-03-20T08:45:25.801Z,12.25
2023-03-20T08:47:52.660Z,10.60
2023-03-20T08:50:19.273Z,13.73
2023-03-20T08:52:46.860Z,14.07
2023-03-20T08:55:14.710Z,19.77
2023-03-20T08:57:41.346Z,14.70
2023-03-20T09:00:09.400Z,15.95
2023-03-20T09:02:36.108Z,19.70
2023-03-20T09:05:02.638Z,17.90
2023-03-20T09:07:29.175Z,18.42
2023-03-20T09:09:55.545Z,20.02
2023-03-20T09:12:21.983Z,18.70
2023-03-20T09:14:48.412Z,19.85
2023-03-20T09:17:14.776Z,18.42
2023-03-20T09:19:44.123Z,17.98
2023-03-20T09:22:14.852Z,16.30
2023-03-20T09:24:41.722Z,14.10
2023-03-20T09:27:08.411Z,16.65
2023-03-20T09:29:34.829Z,19.40
2023-03-20T09:32:01.594Z,15.35
2023-03-20T09:34:29.306Z,14.27
2023-03-20T09:36:55.994Z,13.43
2023-03-20T09:39:22.518Z,19.08
2023-03-20T09:41:56.956Z,12.95
2023-03-20T09:44:49.736Z,15.20
2023-03-20T09:48:08.589Z,15.60
2023-03-20T09:51:16.367Z,13.18
2023-03-20T09:53:48.285Z,13.85
2023-03-20T09:56:19.572Z,12.57
2023-03-20T09:58:52.737Z,14.30
2023-03-20T10:01:19.885Z,14.25
2023-03-20T10:04:06.356Z,12.77
2023-03-20T10:06:33.551Z,12.18
2023-03-20T10:09:00.210Z,12.98
2023-03-20T10:11:50.373Z,14.70
2023-03-20T10:14:31.567Z,14.02
2023-03-20T10:17:03.971Z,14.40
2023-03-20T10:20:13.892Z,12.77
2023-03-20T10:22:48.232Z,14.18
2023-03-20T10:25:37.764Z,12.98
2023-03-20T10:28:12.455Z,16.23
2023-03-20T10:31:01.300Z,12.55
2023-03-20T10:33:37.515Z,13.65
2023-03-20T10:36:13.412Z,9.75
2023-03-20T10:38:56.403Z,15.15
2023-03-20T10:41:26.736Z,10.98
2023-03-20T10:43:53.943Z,11.13
2023-03-20T10:46:26.338Z,10.90
2023-03-20T10:49:18.906Z,11.50
2023-03-20T10:54:41.479Z,11.50
2023-03-20T10:57:14.062Z,8.43
2023-03-20T10:59:45.612Z,13.50
2023-03-20T11:02:13.925Z,8.95
2023-03-20T11:04:40.602Z,8.77
2023-03-20T11:07:26.563Z,5.50
2023-03-20T11:10:05.127Z,9.80
2023-03-20T11:12:50.411Z,9.23
2023-03-20T11:15:32.987Z,6.75
2023-03-20T11:17:59.269Z,9.18
2023-03-20T11:20:27.601Z,5.15
2023-03-20T11:22:59.698Z,10.15
2023-03-20T11:25:30.989Z,8.50
2023-03-20T11:27:58.694Z,6.23
2023-03-20T11:30:25.135Z,6.75
2023-03-20T11:32:55.338Z,5.28
2023-03-20T11:35:34.541Z,8.25
2023-03-20T11:38:12.280Z,6.00
2023-03-20T11:40:39.061Z,7.20
2023-03-20T11:43:19.048Z,3.97
2023-03-20T11:45:48.521Z,6.18
2023-03-20T11:48:21.438Z,8.55
2023-03-20T11:50:55.241Z,6.85
2023-03-20T11:54:00.132Z,9.57
2023-03-20T11:56:31.739Z,7.68
2023-03-20T11:59:10.331Z,7.95
2023-03-20T12:01:46.706Z,7.38
2023-03-20T12:04:16.720Z,6.15
2023-03-20T12:06:51.217Z,7.63
2023-03-20T12:09:32.783Z,9.27
2023-03-20T12:12:08.104Z,6.13
2023-03-20T12:14:55.082Z,9.65
2023-03-20T12:17:43.018Z,6.47
2023-03-20T12:20:29.932Z,5.57
2023-03-20T12:23:09.084Z,6.40
2023-03-20T12:25:41.228Z,7.13
2023-03-20T12:31:24.787Z,5.32
2023-03-20T12:33:58.774Z,7.40
2023-03-20T12:36:37.180Z,6.82
2023-03-20T12:39:06.447Z,12.55
2023-03-20T12:42:06.734Z,5.72
2023-03-20T12:44:56.093Z,5.60
2023-03-20T12:47:33.084Z,6.20
2023-03-20T12:50:24.876Z,7.05
2023-03-20T12:53:16.159Z,8.13
2023-03-20T12:55:48.513Z,4.68
2023-03-20T12:58:23.885Z,5.05
2023-03-20T13:01:02.714Z,5.40
2023-03-20T13:03:47.329Z,4.80
2023-03-20T13:06:15.306Z,6.00
2023-03-20T13:08:41.597Z,8.98
2023-03-20T13:11:13.853Z,9.07
2023-03-20T13:13:46.580Z,7.20
2023-03-20T13:16:15.605Z,7.35
2023-03-20T13:19:16.585Z,10.88
2023-03-20T13:21:48.976Z,4.97
2023-03-20T13:24:32.851Z,10.00
2023-03-20T13:27:11.200Z,11.10
2023-03-20T13:29:53.277Z,7.68
2023-03-20T13:32:40.914Z,8.52
2023-03-20T13:35:25.453Z,8.27
2023-03-20T13:38:27.051Z,6.75
2023-03-20T13:40:59.502Z,8.90
2023-03-20T13:43:32.620Z,6.15
2023-03-20T13:46:12.368Z,7.22
2023-03-20T13:48:40.958Z,7.35
2023-03-20T13:51:17.039Z,11.45
2023-03-20T13:54:21.137Z,7.97
2023-03-20T13:57:09.326Z,4.35
2023-03-20T13:59:56.111Z,7.55
2023-03-20T14:02:22.395Z,8.02
2023-03-20T14:04:52.000Z,6.78
2023-03-20T14:07:33.700Z,5.80
2023-03-20T14:10:21.901Z,7.18
2023-03-20T14:12:58.115Z,6.13
2023-03-20T14:15:27.196Z,6.70
2023-03-20T14:17:53.691Z,4.63
2023-03-20T14:20:32.754Z,4.35
2023-03-20T14:22:59.379Z,9.02
2023-03-20T14:25:28.406Z,8.10
2023-03-20T14:27:57.944Z,9.10
2023-03-20T14:30:30.768Z,3.55
2023-03-20T14:33:12.549Z,3.42
2023-03-20T14:36:12.627Z,7.15
2023-03-20T14:39:11.790Z,9.68
2023-03-20T14:41:48.701Z,5.95
2023-03-20T14:44:27.334Z,6.68
2023-03-20T14:46:56.626Z,7.15
2023-03-20T14:49:43.873Z,9.85
2023-03-20T14:52:37.919Z,7.88
2023-03-20T14:55:19.510Z,5.80
2023-03-20T14:57:56.206Z,4.15
2023-03-20T15:00:25.394Z,8.40
2023-03-20T15:02:53.896Z,9.55
2023-03-20T15:05:29.266Z,10.82
2023-03-20T15:07:57.600Z,5.45
2023-03-20T15:10:25.384Z,7.10
2023-03-20T15:12:52.331Z,4.40
2023-03-20T15:15:31.505Z,7.43
2023-03-20T15:18:05.237Z,5.80
2023-03-20T15:20:31.851Z,8.93
2023-03-20T15:23:00.173Z,8.32
2023-03-20T15:25:33.209Z,7.72
2023-03-20T15:27:59.710Z,7.95
2023-03-20T15:30:26.638Z,8.15
2023-03-20T15:32:54.400Z,7.55
2023-03-20T15:35:23.267Z,8.40
2023-03-20T15:37:50.978Z,9.82
2023-03-20T15:40:24.742Z,9.13
2023-03-20T15:43:03.544Z,7.00
2023-03-20T15:45:37.445Z,9.55
2023-03-20T15:48:06.473Z,13.65
2023-03-20T15:50:35.717Z,12.45
2023-03-20T15:53:03.549Z,6.70
2023-03-20T15:55:30.156Z,6.82
2023-03-20T15:57:57.841Z,9.48
2023-03-20T16:00:31.222Z,9.02
2023-03-20T16:02:59.222Z,12.50
2023-03-20T16:05:27.696Z,8.35
2023-03-20T16:07:54.639Z,5.55
2023-03-20T16:10:28.531Z,10.35
2023-03-20T16:12:55.242Z,11.40
2023-03-20T16:15:25.481Z,12.80
2023-03-20T16:17:55.203Z,6.57
2023-03-20T16:20:22.302Z,10.38
2023-03-20T16:22:49.043Z,11.55
2023-03-20T16:25:17.986Z,10.40
2023-03-20T16:27:46.625Z,11.98
2023-03-20T16:30:17.419Z,10.25
2023-03-20T16:32:47.099Z,11.77
2023-03-20T16:35:27.726Z,13.70
2023-03-20T16:37:59.483Z,11.48
2023-03-20T16:40:34.837Z,16.60
2023-03-20T16:43:14.472Z,13.05
2023-03-20T16:45:44.401Z,12.10
2023-03-20T16:48:11.077Z,9.57
2023-03-20T16:50:39.322Z,14.63
2023-03-20T16:53:11.052Z,13.90
2023-03-20T16:55:42.521Z,14.00
2023-03-20T16:58:09.085Z,13.25
2023-03-20T17:00:52.518Z,15.55
2023-03-20T17:03:25.819Z,16.55
2023-03-20T17:06:00.357Z,14.65
2023-03-20T17:08:34.809Z,13.52
2023-03-20T17:11:05.571Z,12.45
2023-03-20T17:13:31.989Z,16.77
2023-03-20T17:15:59.511Z,10.38
2023-03-20T17:18:25.896Z,15.30
2023-03-20T17:20:52.242Z,14.27
2023-03-20T17:23:21.309Z,11.88
2023-03-20T17:25:49.190Z,14.20
2023-03-20T17:28:21.273Z,10.73
2023-03-20T17:30:49.226Z,14.48
2023-03-20T17:33:17.026Z,13.95
2023-03-20T17:35:43.610Z,14.20
2023-03-20T17:38:18.830Z,14.32
2023-03-20T17:40:45.707Z,14.05
2023-03-20T17:43:14.219Z,11.35
2023-03-20T17:45:41.472Z,12.70
2023-03-20T17:48:16.985Z,14.90
2023-03-20T17:50:52.801Z,12.45
2023-03-20T17:53:23.722Z,15.07
2023-03-20T17:55:51.298Z,14.65
2023-03-20T17:58:21.006Z,14.95
2023-03-20T18:00:48.498Z,13.10
2023-03-20T18:03:16.582Z,13.82
2023-03-20T18:05:42.965Z,13.25
2023-03-20T18:08:13.766Z,12.85
2023-03-20T18:10:40.645Z,14.68
2023-03-20T18:13:07.182Z,19.35
2023-03-20T18:15:33.644Z,16.27
2023-03-20T18:18:00.108Z,15.15
2023-03-20T18:20:29.923Z,15.40
2023-03-20T18:22:56.315Z,14.20
2023-03-20T18:25:23.336Z,14.45
2023-03-20T18:27:49.728Z,12.88
2023-03-20T18:30:18.437Z,12.68
2023-03-20T18:32:45.191Z,19.48
2023-03-20T18:35:12.291Z,16.65
2023-03-20T18:37:39.768Z,15.80
2023-03-20T18:40:10.438Z,14.45
2023-03-20T18:42:36.798Z,15.00
2023-03-20T18:45:03.275Z,16.88
2023-03-20T18:47:29.652Z,12.15
2023-03-20T18:49:56.110Z,14.02
2023-03-20T18:52:22.488Z,14.23
2023-03-20T18:54:48.897Z,12.45
2023-03-20T18:57:15.309Z,12.25
2023-03-20T18:59:41.711Z,16.90
2023-03-20T19:02:08.152Z,15.80
2023-03-20T19:04:35.381Z,15.73
2023-03-20T19:07:01.833Z,15.85
2023-03-20T19:09:28.221Z,15.07
2023-03-20T19:11:54.750Z,14.60
2023-03-20T19:14:21.197Z,13.80
2023-03-20T19:16:47.609Z,10.77
2023-03-20T19:19:15.406Z,12.90
2023-03-20T19:21:41.862Z,8.63
2023-03-20T19:24:08.641Z,11.25
2023-03-20T19:26:36.962Z,15.45
2023-03-20T19:29:08.387Z,12.15
2023-03-20T19:31:35.752Z,12.77
2023-03-20T19:34:02.113Z,10.35
2023-03-20T19:36:35.578Z,13.80
2023-03-20T19:39:04.886Z,11.35
2023-03-20T19:41:32.403Z,14.43
2023-03-20T19:43:59.036Z,14.40
2023-03-20T19:46:42.752Z,12.80
2023-03-20T19:49:17.874Z,13.57
2023-03-20T19:51:44.868Z,9.80
2023-03-20T19:54:11.226Z,17.83
2023-03-20T19:56:37.589Z,10.57
2023-03-20T19:59:05.746Z,16.08
2023-03-20T20:01:32.173Z,9.20
2023-03-20T20:03:58.968Z,11.82
2023-03-20T20:06:31.040Z,12.73
2023-03-20T20:08:58.117Z,10.73
2023-03-20T20:11:24.775Z,10.32
2023-03-20T20:14:06.297Z,11.93
2023-03-20T20:16:37.056Z,14.98
2023-03-20T20:19:03.763Z,17.27
2023-03-20T20:24:16.724Z,14.63
2023-03-20T20:26:53.240Z,10.63
2023-03-20T20:29:21.756Z,13.27
2023-03-20T20:31:48.344Z,10.55
2023-03-20T20:35:18.543Z,9.98
2023-03-20T20:39:48.081Z,13.40
2023-03-20T20:42:14.903Z,7.88
2023-03-20T20:44:41.272Z,11.95
2023-03-20T20:47:08.249Z,12.30
2023-03-20T20:49:35.117Z,10.93
2023-03-20T20:52:01.661Z,12.77
2023-03-20T20:54:28.822Z,11.55
2023-03-20T20:56:55.531Z,9.93
2023-03-20T20:59:22.470Z,12.57
2023-03-20T21:01:49.278Z,11.40
2023-03-20T21:04:15.874Z,8.70
2023-03-20T21:09:28.671Z,10.77
2023-03-20T21:11:55.045Z,11.02
2023-03-20T21:14:21.898Z,10.65
2023-03-20T21:16:48.270Z,14.23
2023-03-20T21:19:14.713Z,14.05
2023-03-20T21:21:41.651Z,11.88
2023-03-20T21:24:30.585Z,12.63
2023-03-20T21:26:58.691Z,11.38
2023-03-20T21:29:25.617Z,13.15
2023-03-20T21:31:52.172Z,14.52
2023-03-20T21:34:18.567Z,14.85
2023-03-20T21:36:49.005Z,8.43
2023-03-20T21:39:17.114Z,13.10
2023-03-20T21:41:43.512Z,12.18
2023-03-20T21:44:16.589Z,13.85
2023-03-20T21:50:23.505Z,14.18
2023-03-20T21:56:02.483Z,15.85
2023-03-20T22:03:52.042Z,15.63
2023-03-20T22:07:12.840Z,13.55
2023-03-20T22:09:51.815Z,10.13
2023-03-20T22:34:52.404Z,16.50
2023-03-20T22:45:09.798Z,17.33
2023-03-20T22:47:36.652Z,15.75
2023-03-20T22:50:03.485Z,16.20
2023-03-20T22:52:42.023Z,17.95
2023-03-20T22:55:16.493Z,21.67
2023-03-20T22:57:53.017Z,16.92
2023-03-20T23:00:29.231Z,15.65
2023-03-20T23:03:06.716Z,17.85
2023-03-20T23:05:40.837Z,19.45
2023-03-20T23:08:09.264Z,21.55
2023-03-20T23:10:37.870Z,19.27
2023-03-20T23:13:04.612Z,21.92
2023-03-20T23:15:31.298Z,18.88
2023-03-20T23:17:57.657Z,19.95
2023-03-20T23:20:24.400Z,18.50
2023-03-20T23:22:51.281Z,24.88
2023-03-20T23:25:30.776Z,24.17
2023-03-20T23:28:04.283Z,23.80
2023-03-20T23:30:38.046Z,17.38
2023-03-20T23:33:10.312Z,19.92
2023-03-20T23:35:36.695Z,20.15
2023-03-20T23:38:03.097Z,20.73
2023-03-20T23:40:29.466Z,24.77
2023-03-20T23:42:55.842Z,17.95
2023-03-20T23:45:22.226Z,23.85
2023-03-20T23:47:49.403Z,22.67
2023-03-20T23:50:28.663Z,21.13
2023-03-20T23:55:45.757Z,18.67
2023-03-20T23:58:12.713Z,18.98
